sensor_id;sensor_type;location;lat;lon;timestamp;P1;durP1;ratioP1;P2;durP2;ratioP2
29958;SDS011;16815;51.100;6.516;2023-11-22T00:00:08;15.30;;;12.50;;
29958;SDS011;16815;51.100;6.516;2023-11-22T00:02:34;15.37;;;12.80;;
29958;SDS011;16815;51.100;6.516;2023-11-22T00:05:00;16.60;;;13.60;;
29958;SDS011;16815;51.100;6.516;2023-11-22T00:07:28;17.00;;;13.80;;
29958;SDS011;16815;51.100;6.516;2023-11-22T00:09:54;16.30;;;13.70;;
29958;SDS011;16815;51.100;6.516;2023-11-22T00:12:20;18.40;;;13.70;;
29958;SDS011;16815;51.100;6.516;2023-11-22T00:14:47;15.27;;;12.97;;
29958;SDS011;16815;51.100;6.516;2023-11-22T00:17:13;16.57;;;13.10;;
29958;SDS011;16815;51.100;6.516;2023-11-22T00:19:39;17.13;;;13.33;;
29958;SDS011;16815;51.100;6.516;2023-11-22T00:22:05;15.27;;;12.87;;
29958;SDS011;16815;51.100;6.516;2023-11-22T00:24:38;14.33;;;11.90;;
29958;SDS011;16815;51.100;6.516;2023-11-22T00:27:04;15.73;;;13.50;;
29958;SDS011;16815;51.100;6.516;2023-11-22T00:29:30;15.57;;;12.90;;
29958;SDS011;16815;51.100;6.516;2023-11-22T00:31:56;16.03;;;14.00;;
29958;SDS011;16815;51.100;6.516;2023-11-22T00:34:22;16.07;;;13.30;;
29958;SDS011;16815;51.100;6.516;2023-11-22T00:36:48;18.37;;;13.80;;
29958;SDS011;16815;51.100;6.516;2023-11-22T00:39:14;17.37;;;14.07;;
29958;SDS011;16815;51.100;6.516;2023-11-22T00:41:41;17.53;;;14.13;;
29958;SDS011;16815;51.100;6.516;2023-11-22T00:44:07;16.63;;;13.77;;
29958;SDS011;16815;51.100;6.516;2023-11-22T00:46:33;16.80;;;13.57;;
29958;SDS011;16815;51.100;6.516;2023-11-22T00:48:59;16.40;;;13.43;;
29958;SDS011;16815;51.100;6.516;2023-11-22T00:51:25;16.33;;;13.10;;
29958;SDS011;16815;51.100;6.516;2023-11-22T00:53:52;15.03;;;13.43;;
29958;SDS011;16815;51.100;6.516;2023-11-22T00:56:18;20.10;;;14.20;;
29958;SDS011;16815;51.100;6.516;2023-11-22T00:58:43;15.70;;;14.00;;
29958;SDS011;16815;51.100;6.516;2023-11-22T01:01:09;16.93;;;13.17;;
29958;SDS011;16815;51.100;6.516;2023-11-22T01:03:36;19.33;;;14.03;;
29958;SDS011;16815;51.100;6.516;2023-11-22T01:06:02;17.17;;;13.53;;
29958;SDS011;16815;51.100;6.516;2023-11-22T01:08:28;16.10;;;14.07;;
29958;SDS011;16815;51.100;6.516;2023-11-22T01:10:54;14.83;;;12.33;;
29958;SDS011;16815;51.100;6.516;2023-11-22T01:13:22;14.90;;;12.97;;
29958;SDS011;16815;51.100;6.516;2023-11-22T01:15:48;16.33;;;12.87;;
29958;SDS011;16815;51.100;6.516;2023-11-22T01:18:14;16.50;;;12.77;;
29958;SDS011;16815;51.100;6.516;2023-11-22T01:20:40;16.47;;;13.00;;
29958;SDS011;16815;51.100;6.516;2023-11-22T01:23:06;16.77;;;13.40;;
29958;SDS011;16815;51.100;6.516;2023-11-22T01:25:32;16.43;;;14.30;;
29958;SDS011;16815;51.100;6.516;2023-11-22T01:27:57;17.57;;;14.07;;
29958;SDS011;16815;51.100;6.516;2023-11-22T01:30:23;16.03;;;13.40;;
29958;SDS011;16815;51.100;6.516;2023-11-22T01:32:49;17.97;;;14.77;;
29958;SDS011;16815;51.100;6.516;2023-11-22T01:35:15;17.00;;;13.77;;
29958;SDS011;16815;51.100;6.516;2023-11-22T01:37:41;15.87;;;13.90;;
29958;SDS011;16815;51.100;6.516;2023-11-22T01:40:07;15.93;;;13.30;;
29958;SDS011;16815;51.100;6.516;2023-11-22T01:42:33;17.43;;;13.93;;
29958;SDS011;16815;51.100;6.516;2023-11-22T01:45:02;15.07;;;13.47;;
29958;SDS011;16815;51.100;6.516;2023-11-22T01:47:28;16.43;;;14.00;;
29958;SDS011;16815;51.100;6.516;2023-11-22T01:49:54;14.53;;;12.87;;
29958;SDS011;16815;51.100;6.516;2023-11-22T01:52:22;16.00;;;13.57;;
29958;SDS011;16815;51.100;6.516;2023-11-22T01:54:48;15.97;;;12.87;;
29958;SDS011;16815;51.100;6.516;2023-11-22T01:57:14;16.53;;;13.23;;
29958;SDS011;16815;51.100;6.516;2023-11-22T01:59:40;14.37;;;12.90;;
29958;SDS011;16815;51.100;6.516;2023-11-22T02:02:07;15.70;;;12.83;;
29958;SDS011;16815;51.100;6.516;2023-11-22T02:04:33;16.87;;;13.30;;
29958;SDS011;16815;51.100;6.516;2023-11-22T02:06:59;15.83;;;13.53;;
29958;SDS011;16815;51.100;6.516;2023-11-22T02:09:25;14.53;;;12.73;;
29958;SDS011;16815;51.100;6.516;2023-11-22T02:11:51;14.50;;;12.93;;
29958;SDS011;16815;51.100;6.516;2023-11-22T02:14:17;15.57;;;13.33;;
29958;SDS011;16815;51.100;6.516;2023-11-22T02:16:43;18.47;;;13.13;;
29958;SDS011;16815;51.100;6.516;2023-11-22T02:19:13;15.63;;;13.80;;
29958;SDS011;16815;51.100;6.516;2023-11-22T02:21:40;15.63;;;13.23;;
29958;SDS011;16815;51.100;6.516;2023-11-22T02:24:06;14.57;;;13.07;;
29958;SDS011;16815;51.100;6.516;2023-11-22T02:26:32;15.50;;;13.07;;
29958;SDS011;16815;51.100;6.516;2023-11-22T02:28:58;16.03;;;14.03;;
29958;SDS011;16815;51.100;6.516;2023-11-22T02:31:24;16.13;;;13.53;;
29958;SDS011;16815;51.100;6.516;2023-11-22T02:33:52;16.00;;;13.70;;
29958;SDS011;16815;51.100;6.516;2023-11-22T02:36:18;16.33;;;14.13;;
29958;SDS011;16815;51.100;6.516;2023-11-22T02:38:44;18.23;;;15.40;;
29958;SDS011;16815;51.100;6.516;2023-11-22T02:41:11;17.33;;;15.50;;
29958;SDS011;16815;51.100;6.516;2023-11-22T02:43:38;19.73;;;15.73;;
29958;SDS011;16815;51.100;6.516;2023-11-22T02:46:06;18.17;;;14.60;;
29958;SDS011;16815;51.100;6.516;2023-11-22T02:48:33;15.47;;;13.67;;
29958;SDS011;16815;51.100;6.516;2023-11-22T02:50:59;17.80;;;14.80;;
29958;SDS011;16815;51.100;6.516;2023-11-22T02:53:24;16.40;;;13.47;;
29958;SDS011;16815;51.100;6.516;2023-11-22T02:55:51;17.40;;;14.57;;
29958;SDS011;16815;51.100;6.516;2023-11-22T02:58:20;18.50;;;14.30;;
29958;SDS011;16815;51.100;6.516;2023-11-22T03:00:46;15.87;;;13.10;;
29958;SDS011;16815;51.100;6.516;2023-11-22T03:03:12;15.03;;;13.03;;
29958;SDS011;16815;51.100;6.516;2023-11-22T03:05:38;18.00;;;14.23;;
29958;SDS011;16815;51.100;6.516;2023-11-22T03:08:05;17.43;;;13.20;;
29958;SDS011;16815;51.100;6.516;2023-11-22T03:10:32;16.07;;;13.43;;
29958;SDS011;16815;51.100;6.516;2023-11-22T03:12:58;15.47;;;13.50;;
29958;SDS011;16815;51.100;6.516;2023-11-22T03:15:24;15.57;;;13.17;;
29958;SDS011;16815;51.100;6.516;2023-11-22T03:17:50;16.33;;;14.60;;
29958;SDS011;16815;51.100;6.516;2023-11-22T03:20:16;17.70;;;14.80;;
29958;SDS011;16815;51.100;6.516;2023-11-22T03:22:43;18.23;;;15.30;;
29958;SDS011;16815;51.100;6.516;2023-11-22T03:25:10;18.13;;;15.47;;
29958;SDS011;16815;51.100;6.516;2023-11-22T03:27:37;18.60;;;15.37;;
29958;SDS011;16815;51.100;6.516;2023-11-22T03:30:03;18.10;;;15.43;;
29958;SDS011;16815;51.100;6.516;2023-11-22T03:32:29;19.87;;;16.00;;
29958;SDS011;16815;51.100;6.516;2023-11-22T03:34:55;22.17;;;16.67;;
29958;SDS011;16815;51.100;6.516;2023-11-22T03:37:22;18.57;;;16.07;;
29958;SDS011;16815;51.100;6.516;2023-11-22T03:39:49;20.83;;;17.33;;
29958;SDS011;16815;51.100;6.516;2023-11-22T03:42:15;20.90;;;16.50;;
29958;SDS011;16815;51.100;6.516;2023-11-22T03:44:41;23.80;;;18.70;;
29958;SDS011;16815;51.100;6.516;2023-11-22T03:47:07;22.40;;;17.93;;
29958;SDS011;16815;51.100;6.516;2023-11-22T03:49:33;23.93;;;18.50;;
29958;SDS011;16815;51.100;6.516;2023-11-22T03:51:59;28.80;;;18.77;;
29958;SDS011;16815;51.100;6.516;2023-11-22T03:54:25;25.43;;;18.87;;
29958;SDS011;16815;51.100;6.516;2023-11-22T03:56:51;26.93;;;19.13;;
29958;SDS011;16815;51.100;6.516;2023-11-22T03:59:17;25.77;;;17.97;;
29958;SDS011;16815;51.100;6.516;2023-11-22T04:01:43;31.77;;;20.33;;
29958;SDS011;16815;51.100;6.516;2023-11-22T04:04:09;32.00;;;19.43;;
29958;SDS011;16815;51.100;6.516;2023-11-22T04:06:35;27.10;;;20.30;;
29958;SDS011;16815;51.100;6.516;2023-11-22T04:09:01;43.93;;;20.80;;
29958;SDS011;16815;51.100;6.516;2023-11-22T04:11:28;30.00;;;19.37;;
29958;SDS011;16815;51.100;6.516;2023-11-22T04:13:54;28.20;;;19.40;;
29958;SDS011;16815;51.100;6.516;2023-11-22T04:16:20;25.97;;;18.80;;
29958;SDS011;16815;51.100;6.516;2023-11-22T04:18:46;24.47;;;18.50;;
29958;SDS011;16815;51.100;6.516;2023-11-22T04:21:12;21.93;;;16.93;;
29958;SDS011;16815;51.100;6.516;2023-11-22T04:23:38;23.50;;;18.70;;
29958;SDS011;16815;51.100;6.516;2023-11-22T04:26:04;25.20;;;19.07;;
29958;SDS011;16815;51.100;6.516;2023-11-22T04:28:32;24.07;;;18.47;;
29958;SDS011;16815;51.100;6.516;2023-11-22T04:30:58;23.20;;;17.50;;
29958;SDS011;16815;51.100;6.516;2023-11-22T04:33:24;26.93;;;18.40;;
29958;SDS011;16815;51.100;6.516;2023-11-22T04:35:53;23.57;;;17.80;;
29958;SDS011;16815;51.100;6.516;2023-11-22T04:38:19;23.30;;;16.83;;
29958;SDS011;16815;51.100;6.516;2023-11-22T04:40:45;24.40;;;17.80;;
29958;SDS011;16815;51.100;6.516;2023-11-22T04:43:11;22.47;;;16.47;;
29958;SDS011;16815;51.100;6.516;2023-11-22T04:45:37;22.43;;;16.97;;
29958;SDS011;16815;51.100;6.516;2023-11-22T04:48:04;20.93;;;16.47;;
29958;SDS011;16815;51.100;6.516;2023-11-22T04:50:31;21.97;;;17.23;;
29958;SDS011;16815;51.100;6.516;2023-11-22T04:52:57;21.33;;;17.40;;
29958;SDS011;16815;51.100;6.516;2023-11-22T04:55:23;21.23;;;17.30;;
29958;SDS011;16815;51.100;6.516;2023-11-22T04:57:49;23.80;;;18.20;;
29958;SDS011;16815;51.100;6.516;2023-11-22T05:00:15;24.33;;;18.63;;
29958;SDS011;16815;51.100;6.516;2023-11-22T05:02:42;27.83;;;20.20;;
29958;SDS011;16815;51.100;6.516;2023-11-22T05:05:08;32.30;;;20.47;;
29958;SDS011;16815;51.100;6.516;2023-11-22T05:07:37;27.40;;;20.03;;
29958;SDS011;16815;51.100;6.516;2023-11-22T05:10:03;29.93;;;20.57;;
29958;SDS011;16815;51.100;6.516;2023-11-22T05:12:30;73.60;;;21.63;;
29958;SDS011;16815;51.100;6.516;2023-11-22T05:14:56;59.50;;;21.80;;
29958;SDS011;16815;51.100;6.516;2023-11-22T05:17:22;70.07;;;23.47;;
29958;SDS011;16815;51.100;6.516;2023-11-22T05:19:49;115.10;;;21.97;;
29958;SDS011;16815;51.100;6.516;2023-11-22T05:22:15;110.23;;;23.93;;
29958;SDS011;16815;51.100;6.516;2023-11-22T05:24:41;71.63;;;23.13;;
29958;SDS011;16815;51.100;6.516;2023-11-22T05:27:08;65.83;;;23.10;;
29958;SDS011;16815;51.100;6.516;2023-11-22T05:29:34;55.53;;;23.67;;
29958;SDS011;16815;51.100;6.516;2023-11-22T05:32:00;31.77;;;21.23;;
29958;SDS011;16815;51.100;6.516;2023-11-22T05:34:27;30.63;;;21.87;;
29958;SDS011;16815;51.100;6.516;2023-11-22T05:36:53;30.50;;;20.70;;
29958;SDS011;16815;51.100;6.516;2023-11-22T05:39:19;29.10;;;20.70;;
29958;SDS011;16815;51.100;6.516;2023-11-22T05:41:47;29.77;;;20.63;;
29958;SDS011;16815;51.100;6.516;2023-11-22T05:44:13;26.07;;;20.53;;
29958;SDS011;16815;51.100;6.516;2023-11-22T05:46:39;26.07;;;19.13;;
29958;SDS011;16815;51.100;6.516;2023-11-22T05:49:05;27.30;;;20.17;;
29958;SDS011;16815;51.100;6.516;2023-11-22T05:51:32;29.60;;;20.40;;
29958;SDS011;16815;51.100;6.516;2023-11-22T05:53:58;25.93;;;19.53;;
29958;SDS011;16815;51.100;6.516;2023-11-22T05:56:24;27.63;;;19.67;;
29958;SDS011;16815;51.100;6.516;2023-11-22T05:58:50;23.23;;;18.80;;
29958;SDS011;16815;51.100;6.516;2023-11-22T06:01:16;30.70;;;20.90;;
29958;SDS011;16815;51.100;6.516;2023-11-22T06:03:42;26.43;;;19.77;;
29958;SDS011;16815;51.100;6.516;2023-11-22T06:06:08;26.50;;;20.23;;
29958;SDS011;16815;51.100;6.516;2023-11-22T06:08:34;27.07;;;19.17;;
29958;SDS011;16815;51.100;6.516;2023-11-22T06:11:00;26.83;;;19.33;;
29958;SDS011;16815;51.100;6.516;2023-11-22T06:13:26;26.23;;;19.83;;
29958;SDS011;16815;51.100;6.516;2023-11-22T06:15:52;26.60;;;20.00;;
29958;SDS011;16815;51.100;6.516;2023-11-22T06:18:18;27.73;;;20.30;;
29958;SDS011;16815;51.100;6.516;2023-11-22T06:20:45;26.57;;;19.23;;
29958;SDS011;16815;51.100;6.516;2023-11-22T06:23:12;24.57;;;19.10;;
29958;SDS011;16815;51.100;6.516;2023-11-22T06:25:38;27.27;;;18.60;;
29958;SDS011;16815;51.100;6.516;2023-11-22T06:28:07;25.67;;;19.33;;
29958;SDS011;16815;51.100;6.516;2023-11-22T06:30:33;25.10;;;17.73;;
29958;SDS011;16815;51.100;6.516;2023-11-22T06:33:00;22.50;;;18.17;;
29958;SDS011;16815;51.100;6.516;2023-11-22T06:35:26;25.27;;;19.10;;
29958;SDS011;16815;51.100;6.516;2023-11-22T06:37:52;24.57;;;18.57;;
29958;SDS011;16815;51.100;6.516;2023-11-22T06:40:18;23.23;;;17.70;;
29958;SDS011;16815;51.100;6.516;2023-11-22T06:42:45;24.37;;;18.93;;
29958;SDS011;16815;51.100;6.516;2023-11-22T06:45:11;24.00;;;18.03;;
29958;SDS011;16815;51.100;6.516;2023-11-22T06:47:43;25.57;;;18.33;;
29958;SDS011;16815;51.100;6.516;2023-11-22T06:50:09;26.37;;;19.23;;
29958;SDS011;16815;51.100;6.516;2023-11-22T06:52:36;22.37;;;17.60;;
29958;SDS011;16815;51.100;6.516;2023-11-22T06:55:03;23.20;;;16.63;;
29958;SDS011;16815;51.100;6.516;2023-11-22T06:57:29;23.90;;;17.70;;
29958;SDS011;16815;51.100;6.516;2023-11-22T06:59:55;23.50;;;17.70;;
29958;SDS011;16815;51.100;6.516;2023-11-22T07:02:21;23.37;;;16.67;;
29958;SDS011;16815;51.100;6.516;2023-11-22T07:04:47;24.50;;;17.63;;
29958;SDS011;16815;51.100;6.516;2023-11-22T07:07:13;26.53;;;17.00;;
29958;SDS011;16815;51.100;6.516;2023-11-22T07:09:43;27.80;;;17.50;;
29958;SDS011;16815;51.100;6.516;2023-11-22T07:12:09;24.47;;;17.30;;
29958;SDS011;16815;51.100;6.516;2023-11-22T07:14:35;23.40;;;15.77;;
29958;SDS011;16815;51.100;6.516;2023-11-22T07:17:01;20.30;;;15.83;;
29958;SDS011;16815;51.100;6.516;2023-11-22T07:19:27;22.70;;;17.13;;
29958;SDS011;16815;51.100;6.516;2023-11-22T07:21:53;24.23;;;18.27;;
29958;SDS011;16815;51.100;6.516;2023-11-22T07:24:20;21.60;;;17.90;;
29958;SDS011;16815;51.100;6.516;2023-11-22T07:26:46;25.27;;;17.37;;
29958;SDS011;16815;51.100;6.516;2023-11-22T07:29:12;24.10;;;18.27;;
29958;SDS011;16815;51.100;6.516;2023-11-22T07:31:38;22.40;;;17.23;;
29958;SDS011;16815;51.100;6.516;2023-11-22T07:34:04;27.13;;;17.70;;
29958;SDS011;16815;51.100;6.516;2023-11-22T07:36:51;23.33;;;16.53;;
29958;SDS011;16815;51.100;6.516;2023-11-22T07:39:17;28.97;;;17.37;;
29958;SDS011;16815;51.100;6.516;2023-11-22T07:41:50;26.30;;;18.67;;
29958;SDS011;16815;51.100;6.516;2023-11-22T07:44:17;21.03;;;16.93;;
29958;SDS011;16815;51.100;6.516;2023-11-22T07:46:43;25.30;;;17.07;;
29958;SDS011;16815;51.100;6.516;2023-11-22T07:49:13;22.30;;;15.97;;
29958;SDS011;16815;51.100;6.516;2023-11-22T07:51:43;20.93;;;17.00;;
29958;SDS011;16815;51.100;6.516;2023-11-22T07:54:12;21.60;;;16.10;;
29958;SDS011;16815;51.100;6.516;2023-11-22T07:56:40;30.57;;;22.17;;
29958;SDS011;16815;51.100;6.516;2023-11-22T07:59:08;22.47;;;17.33;;
29958;SDS011;16815;51.100;6.516;2023-11-22T08:01:35;20.97;;;16.70;;
29958;SDS011;16815;51.100;6.516;2023-11-22T08:04:01;22.63;;;16.57;;
29958;SDS011;16815;51.100;6.516;2023-11-22T08:06:27;19.50;;;15.57;;
29958;SDS011;16815;51.100;6.516;2023-11-22T08:08:57;21.30;;;16.67;;
29958;SDS011;16815;51.100;6.516;2023-11-22T08:11:26;21.40;;;16.60;;
29958;SDS011;16815;51.100;6.516;2023-11-22T08:13:52;19.23;;;15.67;;
29958;SDS011;16815;51.100;6.516;2023-11-22T08:16:20;20.10;;;16.87;;
29958;SDS011;16815;51.100;6.516;2023-11-22T08:18:46;20.83;;;15.93;;
29958;SDS011;16815;51.100;6.516;2023-11-22T08:21:12;18.37;;;15.00;;
29958;SDS011;16815;51.100;6.516;2023-11-22T08:23:39;18.67;;;15.03;;
29958;SDS011;16815;51.100;6.516;2023-11-22T08:26:05;24.90;;;15.93;;
29958;SDS011;16815;51.100;6.516;2023-11-22T08:28:31;20.63;;;16.10;;
29958;SDS011;16815;51.100;6.516;2023-11-22T08:30:59;21.10;;;16.30;;
29958;SDS011;16815;51.100;6.516;2023-11-22T08:33:26;18.27;;;14.73;;
29958;SDS011;16815;51.100;6.516;2023-11-22T08:35:51;19.90;;;15.43;;
29958;SDS011;16815;51.100;6.516;2023-11-22T08:38:23;19.40;;;14.73;;
29958;SDS011;16815;51.100;6.516;2023-11-22T08:41:15;19.93;;;15.13;;
29958;SDS011;16815;51.100;6.516;2023-11-22T08:43:42;21.23;;;14.40;;
29958;SDS011;16815;51.100;6.516;2023-11-22T08:46:11;17.30;;;14.53;;
29958;SDS011;16815;51.100;6.516;2023-11-22T08:48:37;19.30;;;15.90;;
29958;SDS011;16815;51.100;6.516;2023-11-22T08:51:03;18.33;;;14.53;;
29958;SDS011;16815;51.100;6.516;2023-11-22T08:53:29;18.07;;;14.43;;
29958;SDS011;16815;51.100;6.516;2023-11-22T08:55:55;17.27;;;14.33;;
29958;SDS011;16815;51.100;6.516;2023-11-22T08:58:22;17.40;;;14.07;;
29958;SDS011;16815;51.100;6.516;2023-11-22T09:00:48;18.67;;;14.73;;
29958;SDS011;16815;51.100;6.516;2023-11-22T09:03:14;16.13;;;13.60;;
29958;SDS011;16815;51.100;6.516;2023-11-22T09:05:42;17.17;;;13.27;;
29958;SDS011;16815;51.100;6.516;2023-11-22T09:08:08;16.63;;;13.13;;
29958;SDS011;16815;51.100;6.516;2023-11-22T09:10:45;16.10;;;12.70;;
29958;SDS011;16815;51.100;6.516;2023-11-22T09:13:12;16.60;;;12.73;;
29958;SDS011;16815;51.100;6.516;2023-11-22T09:15:41;17.17;;;12.93;;
29958;SDS011;16815;51.100;6.516;2023-11-22T09:18:09;15.63;;;12.67;;
29958;SDS011;16815;51.100;6.516;2023-11-22T09:20:35;14.33;;;12.57;;
29958;SDS011;16815;51.100;6.516;2023-11-22T09:23:01;15.37;;;12.77;;
29958;SDS011;16815;51.100;6.516;2023-11-22T09:25:29;13.90;;;12.20;;
29958;SDS011;16815;51.100;6.516;2023-11-22T09:27:56;15.83;;;12.77;;
29958;SDS011;16815;51.100;6.516;2023-11-22T09:30:24;15.40;;;12.50;;
29958;SDS011;16815;51.100;6.516;2023-11-22T09:33:01;14.03;;;11.97;;
29958;SDS011;16815;51.100;6.516;2023-11-22T09:35:27;13.83;;;12.20;;
29958;SDS011;16815;51.100;6.516;2023-11-22T09:37:57;14.87;;;12.17;;
29958;SDS011;16815;51.100;6.516;2023-11-22T09:40:23;14.57;;;12.03;;
29958;SDS011;16815;51.100;6.516;2023-11-22T09:42:49;15.13;;;11.10;;
29958;SDS011;16815;51.100;6.516;2023-11-22T09:45:19;12.87;;;11.57;;
29958;SDS011;16815;51.100;6.516;2023-11-22T09:47:45;13.73;;;11.17;;
29958;SDS011;16815;51.100;6.516;2023-11-22T09:50:19;12.67;;;10.20;;
29958;SDS011;16815;51.100;6.516;2023-11-22T09:52:49;11.17;;;9.27;;
29958;SDS011;16815;51.100;6.516;2023-11-22T09:55:16;10.43;;;9.33;;
29958;SDS011;16815;51.100;6.516;2023-11-22T09:57:42;12.03;;;9.43;;
29958;SDS011;16815;51.100;6.516;2023-11-22T10:00:08;13.00;;;9.70;;
29958;SDS011;16815;51.100;6.516;2023-11-22T10:02:39;11.87;;;9.60;;
29958;SDS011;16815;51.100;6.516;2023-11-22T10:05:05;10.97;;;9.50;;
29958;SDS011;16815;51.100;6.516;2023-11-22T10:07:33;10.97;;;9.57;;
29958;SDS011;16815;51.100;6.516;2023-11-22T10:10:03;9.90;;;8.47;;
29958;SDS011;16815;51.100;6.516;2023-11-22T10:12:30;12.40;;;10.60;;
29958;SDS011;16815;51.100;6.516;2023-11-22T10:15:12;11.43;;;9.67;;
29958;SDS011;16815;51.100;6.516;2023-11-22T10:17:38;11.67;;;9.43;;
29958;SDS011;16815;51.100;6.516;2023-11-22T10:20:04;11.73;;;9.20;;
29958;SDS011;16815;51.100;6.516;2023-11-22T10:22:45;11.60;;;8.60;;
29958;SDS011;16815;51.100;6.516;2023-11-22T10:25:12;8.70;;;7.90;;
29958;SDS011;16815;51.100;6.516;2023-11-22T10:27:38;10.33;;;8.57;;
29958;SDS011;16815;51.100;6.516;2023-11-22T10:30:06;9.67;;;8.40;;
29958;SDS011;16815;51.100;6.516;2023-11-22T10:32:32;9.27;;;8.27;;
29958;SDS011;16815;51.100;6.516;2023-11-22T10:34:58;9.63;;;8.27;;
29958;SDS011;16815;51.100;6.516;2023-11-22T10:37:24;9.73;;;8.60;;
29958;SDS011;16815;51.100;6.516;2023-11-22T10:39:50;11.47;;;8.30;;
29958;SDS011;16815;51.100;6.516;2023-11-22T10:42:17;8.67;;;7.77;;
29958;SDS011;16815;51.100;6.516;2023-11-22T10:44:43;9.70;;;8.40;;
29958;SDS011;16815;51.100;6.516;2023-11-22T10:47:09;10.10;;;8.63;;
29958;SDS011;16815;51.100;6.516;2023-11-22T10:49:38;11.37;;;8.50;;
29958;SDS011;16815;51.100;6.516;2023-11-22T10:52:04;11.10;;;8.80;;
29958;SDS011;16815;51.100;6.516;2023-11-22T10:54:32;11.07;;;8.80;;
29958;SDS011;16815;51.100;6.516;2023-11-22T10:56:59;8.93;;;8.03;;
29958;SDS011;16815;51.100;6.516;2023-11-22T10:59:26;11.87;;;8.67;;
29958;SDS011;16815;51.100;6.516;2023-11-22T11:01:53;10.40;;;8.17;;
29958;SDS011;16815;51.100;6.516;2023-11-22T11:04:33;6.23;;;5.63;;
29958;SDS011;16815;51.100;6.516;2023-11-22T11:07:02;5.87;;;5.27;;
29958;SDS011;16815;51.100;6.516;2023-11-22T11:09:29;6.93;;;5.50;;
29958;SDS011;16815;51.100;6.516;2023-11-22T11:11:57;6.13;;;5.50;;
29958;SDS011;16815;51.100;6.516;2023-11-22T11:14:23;7.83;;;6.37;;
29958;SDS011;16815;51.100;6.516;2023-11-22T11:16:50;8.27;;;6.57;;
29958;SDS011;16815;51.100;6.516;2023-11-22T11:19:19;6.47;;;5.87;;
29958;SDS011;16815;51.100;6.516;2023-11-22T11:21:49;7.07;;;6.37;;
29958;SDS011;16815;51.100;6.516;2023-11-22T11:24:15;6.77;;;6.00;;
29958;SDS011;16815;51.100;6.516;2023-11-22T11:26:41;8.07;;;6.33;;
29958;SDS011;16815;51.100;6.516;2023-11-22T11:29:29;4.03;;;3.63;;
29958;SDS011;16815;51.100;6.516;2023-11-22T11:31:55;4.93;;;3.57;;
29958;SDS011;16815;51.100;6.516;2023-11-22T11:34:23;4.27;;;3.50;;
29958;SDS011;16815;51.100;6.516;2023-11-22T11:36:52;4.83;;;3.27;;
29958;SDS011;16815;51.100;6.516;2023-11-22T11:39:24;3.47;;;3.00;;
29958;SDS011;16815;51.100;6.516;2023-11-22T11:41:53;7.33;;;3.30;;
29958;SDS011;16815;51.100;6.516;2023-11-22T11:44:33;3.23;;;2.93;;
29958;SDS011;16815;51.100;6.516;2023-11-22T11:46:59;4.53;;;3.87;;
29958;SDS011;16815;51.100;6.516;2023-11-22T11:49:34;4.93;;;3.90;;
29958;SDS011;16815;51.100;6.516;2023-11-22T11:52:02;6.47;;;4.33;;
29958;SDS011;16815;51.100;6.516;2023-11-22T11:54:28;5.27;;;4.60;;
29958;SDS011;16815;51.100;6.516;2023-11-22T11:56:58;5.30;;;4.77;;
29958;SDS011;16815;51.100;6.516;2023-11-22T11:59:24;6.60;;;4.90;;
29958;SDS011;16815;51.100;6.516;2023-11-22T12:01:52;4.97;;;4.47;;
29958;SDS011;16815;51.100;6.516;2023-11-22T12:04:20;7.10;;;5.10;;
29958;SDS011;16815;51.100;6.516;2023-11-22T12:06:46;5.47;;;4.80;;
29958;SDS011;16815;51.100;6.516;2023-11-22T12:09:12;5.50;;;4.93;;
29958;SDS011;16815;51.100;6.516;2023-11-22T12:11:38;5.50;;;4.67;;
29958;SDS011;16815;51.100;6.516;2023-11-22T12:14:05;7.50;;;5.07;;
29958;SDS011;16815;51.100;6.516;2023-11-22T12:16:31;9.33;;;5.77;;
29958;SDS011;16815;51.100;6.516;2023-11-22T12:18:59;6.37;;;5.27;;
29958;SDS011;16815;51.100;6.516;2023-11-22T12:21:25;6.67;;;5.97;;
29958;SDS011;16815;51.100;6.516;2023-11-22T12:23:52;6.27;;;5.07;;
29958;SDS011;16815;51.100;6.516;2023-11-22T12:26:20;9.53;;;5.60;;
29958;SDS011;16815;51.100;6.516;2023-11-22T12:28:47;5.93;;;4.50;;
29958;SDS011;16815;51.100;6.516;2023-11-22T12:31:13;5.30;;;4.07;;
29958;SDS011;16815;51.100;6.516;2023-11-22T12:33:40;4.50;;;4.10;;
29958;SDS011;16815;51.100;6.516;2023-11-22T12:36:07;7.40;;;5.17;;
29958;SDS011;16815;51.100;6.516;2023-11-22T12:38:34;8.70;;;6.17;;
29958;SDS011;16815;51.100;6.516;2023-11-22T12:41:00;10.33;;;7.70;;
29958;SDS011;16815;51.100;6.516;2023-11-22T12:43:28;12.30;;;9.23;;
29958;SDS011;16815;51.100;6.516;2023-11-22T12:46:04;12.77;;;9.47;;
29958;SDS011;16815;51.100;6.516;2023-11-22T12:48:40;11.23;;;9.23;;
29958;SDS011;16815;51.100;6.516;2023-11-22T12:51:16;12.13;;;9.40;;
29958;SDS011;16815;51.100;6.516;2023-11-22T12:53:42;11.57;;;9.60;;
29958;SDS011;16815;51.100;6.516;2023-11-22T12:56:11;12.80;;;9.20;;
29958;SDS011;16815;51.100;6.516;2023-11-22T12:58:37;11.33;;;8.60;;
29958;SDS011;16815;51.100;6.516;2023-11-22T13:01:03;12.67;;;9.23;;
29958;SDS011;16815;51.100;6.516;2023-11-22T13:03:29;12.53;;;9.03;;
29958;SDS011;16815;51.100;6.516;2023-11-22T13:05:56;16.60;;;9.17;;
29958;SDS011;16815;51.100;6.516;2023-11-22T13:08:22;13.13;;;9.03;;
29958;SDS011;16815;51.100;6.516;2023-11-22T13:10:53;11.03;;;8.87;;
29958;SDS011;16815;51.100;6.516;2023-11-22T13:13:23;12.80;;;8.20;;
29958;SDS011;16815;51.100;6.516;2023-11-22T13:15:49;11.70;;;8.37;;
29958;SDS011;16815;51.100;6.516;2023-11-22T13:18:16;9.37;;;8.00;;
29958;SDS011;16815;51.100;6.516;2023-11-22T13:20:42;9.90;;;7.13;;
29958;SDS011;16815;51.100;6.516;2023-11-22T13:23:08;10.77;;;7.30;;
29958;SDS011;16815;51.100;6.516;2023-11-22T13:25:35;10.80;;;7.60;;
29958;SDS011;16815;51.100;6.516;2023-11-22T13:28:01;10.97;;;8.43;;
29958;SDS011;16815;51.100;6.516;2023-11-22T13:30:29;13.53;;;8.47;;
29958;SDS011;16815;51.100;6.516;2023-11-22T13:32:55;9.07;;;7.47;;
29958;SDS011;16815;51.100;6.516;2023-11-22T13:35:22;10.27;;;8.00;;
29958;SDS011;16815;51.100;6.516;2023-11-22T13:37:48;9.33;;;7.77;;
29958;SDS011;16815;51.100;6.516;2023-11-22T13:40:16;9.80;;;6.97;;
29958;SDS011;16815;51.100;6.516;2023-11-22T13:42:45;9.53;;;7.43;;
29958;SDS011;16815;51.100;6.516;2023-11-22T13:45:13;8.87;;;6.97;;
29958;SDS011;16815;51.100;6.516;2023-11-22T13:47:52;10.30;;;7.37;;
29958;SDS011;16815;51.100;6.516;2023-11-22T13:50:22;9.63;;;7.53;;
29958;SDS011;16815;51.100;6.516;2023-11-22T13:52:48;9.43;;;7.40;;
29958;SDS011;16815;51.100;6.516;2023-11-22T13:55:15;9.27;;;7.67;;
29958;SDS011;16815;51.100;6.516;2023-11-22T13:57:47;10.47;;;7.83;;
29958;SDS011;16815;51.100;6.516;2023-11-22T14:00:13;10.17;;;7.63;;
29958;SDS011;16815;51.100;6.516;2023-11-22T14:02:44;9.97;;;7.90;;
29958;SDS011;16815;51.100;6.516;2023-11-22T14:05:10;8.57;;;6.30;;
29958;SDS011;16815;51.100;6.516;2023-11-22T14:07:37;6.90;;;5.97;;
29958;SDS011;16815;51.100;6.516;2023-11-22T14:10:03;11.43;;;6.87;;
29958;SDS011;16815;51.100;6.516;2023-11-22T14:12:31;7.30;;;6.57;;
29958;SDS011;16815;51.100;6.516;2023-11-22T14:14:57;7.80;;;6.83;;
29958;SDS011;16815;51.100;6.516;2023-11-22T14:17:23;11.23;;;7.03;;
29958;SDS011;16815;51.100;6.516;2023-11-22T14:19:49;10.10;;;6.63;;
29958;SDS011;16815;51.100;6.516;2023-11-22T14:22:15;9.20;;;6.57;;
29958;SDS011;16815;51.100;6.516;2023-11-22T14:24:42;8.67;;;6.87;;
29958;SDS011;16815;51.100;6.516;2023-11-22T14:27:10;7.80;;;6.20;;